Time,TemperatureF,DewpointF,PressureIn,WindDirection,WindDirectionDegrees,WindSpeedMPH,WindSpeedGustMPH,Humidity,HourlyPrecipIn,Conditions,Clouds,dailyrainin,SoftwareType,DateUTC
2013-04-21 00:01:00,46.7,29.5,30.35,WNW,283,3.0,3.0,51,0.00,,,0.00,Wunderground v.1.15,2013-04-21 04:01:00,
2013-04-21 00:03:00,46.6,29.4,30.36,West,264,7.0,7.0,51,0.00,,,0.00,Wunderground v.1.15,2013-04-21 04:03:00,
2013-04-21 00:04:00,46.6,29.9,30.36,West,272,4.0,7.0,52,0.00,,,0.00,Wunderground v.1.15,2013-04-21 04:04:00,
2013-04-21 00:09:00,46.6,29.4,30.36,NW,311,2.0,7.0,51,0.00,,,0.00,Wunderground v.1.15,2013-04-21 04:09:00,
2013-04-21 00:10:00,46.6,28.9,30.36,NW,304,2.0,4.0,50,0.00,,,0.00,Wunderground v.1.15,2013-04-21 04:10:00,
2013-04-21 00:11:00,46.6,28.9,30.36,SW,234,4.0,4.0,50,0.00,,,0.00,Wunderground v.1.15,2013-04-21 04:11:00,
2013-04-21 00:16:00,46.5,28.8,30.36,WNW,288,0.0,4.0,50,0.00,,,0.00,Wunderground v.1.15,2013-04-21 04:16:00,
2013-04-21 00:21:00,46.2,29.1,30.37,NW,309,2.0,2.0,51,0.00,,,0.00,Wunderground v.1.15,2013-04-21 04:21:00,
2013-04-21 00:27:00,46.1,29.4,30.37,West,280,4.0,4.0,52,0.00,,,0.00,Wunderground v.1.15,2013-04-21 04:27:00,
2013-04-21 00:32:00,45.8,29.2,30.37,WNW,284,2.0,3.0,52,0.00,,,0.00,Wunderground v.1.15,2013-04-21 04:32:00,
2013-04-21 00:37:00,45.8,29.2,30.37,WNW,286,2.0,3.0,52,0.00,,,0.00,Wunderground v.1.15,2013-04-21 04:37:00,
2013-04-21 00:42:00,45.7,29.5,30.38,West,269,3.0,3.0,53,0.00,,,0.00,Wunderground v.1.15,2013-04-21 04:42:00,
2013-04-21 00:48:00,45.5,29.3,30.38,West,267,3.0,3.0,53,0.00,,,0.00,Wunderground v.1.15,2013-04-21 04:48:00,
2013-04-21 00:54:00,45.3,29.6,30.38,WNW,294,4.0,5.0,54,0.00,,,0.00,Wunderground v.1.15,2013-04-21 04:54:00,
2013-04-21 00:59:00,45.4,29.7,30.38,North,4,5.0,5.0,54,0.00,,,0.00,Wunderground v.1.15,2013-04-21 04:59:00,
2013-04-21 01:05:00,45.2,29.5,30.38,West,275,1.0,3.0,54,0.00,,,0.00,Wunderground v.1.15,2013-04-21 05:05:00,
2013-04-21 01:10:00,45.2,29.1,30.38,NW,310,1.0,4.0,53,0.00,,,0.00,Wunderground v.1.15,2013-04-21 05:10:00,
2013-04-21 01:15:00,44.9,29.2,30.38,NW,310,1.0,2.0,54,0.00,,,0.00,Wunderground v.1.15,2013-04-21 05:15:00,
2013-04-21 01:20:00,44.8,28.7,30.39,West,277,0.0,4.0,53,0.00,,,0.00,Wunderground v.1.15,2013-04-21 05:20:00,
2013-04-21 01:26:00,44.5,28.9,30.39,WNW,290,3.0,3.0,54,0.00,,,0.00,Wunderground v.1.15,2013-04-21 05:26:00,
2013-04-21 01:32:00,44.7,29.1,30.39,WNW,300,2.0,5.0,54,0.00,,,0.00,Wunderground v.1.15,2013-04-21 05:32:00,
2013-04-21 01:37:00,44.5,28.9,30.39,West,277,1.0,2.0,54,0.00,,,0.00,Wunderground v.1.15,2013-04-21 05:37:00,
2013-04-21 01:42:00,44.5,28.4,30.39,NW,311,2.0,3.0,53,0.00,,,0.00,Wunderground v.1.15,2013-04-21 05:42:00,
2013-04-21 01:47:00,44.5,28.4,30.40,WNW,294,2.0,6.0,53,0.00,,,0.00,Wunderground v.1.15,2013-04-21 05:47:00,
2013-04-21 01:53:00,44.3,28.2,30.40,West,273,3.0,6.0,53,0.00,,,0.00,Wunderground v.1.15,2013-04-21 05:53:00,
2013-04-21 01:58:00,44.2,28.1,30.40,WNW,292,3.0,3.0,53,0.00,,,0.00,Wunderground v.1.15,2013-04-21 05:58:00,
2013-04-21 02:03:00,43.8,29.1,30.40,WNW,296,1.0,3.0,56,0.00,,,0.00,Wunderground v.1.15,2013-04-21 06:03:00,
2013-04-21 02:08:00,43.7,29.0,30.40,NNW,330,4.0,5.0,56,0.00,,,0.00,Wunderground v.1.15,2013-04-21 06:08:00,
2013-04-21 02:13:00,43.8,28.2,30.40,WNW,302,2.0,5.0,54,0.00,,,0.00,Wunderground v.1.15,2013-04-21 06:13:00,
2013-04-21 02:18:00,43.7,28.6,30.40,West,276,1.0,5.0,55,0.00,,,0.00,Wunderground v.1.15,2013-04-21 06:18:00,
2013-04-21 02:23:00,43.8,28.2,30.40,West,281,3.0,4.0,54,0.00,,,0.00,Wunderground v.1.15,2013-04-21 06:23:00,
2013-04-21 02:28:00,43.7,28.1,30.40,WNW,302,1.0,4.0,54,0.00,,,0.00,Wunderground v.1.15,2013-04-21 06:28:00,
2013-04-21 02:34:00,43.6,28.0,30.40,WNW,303,2.0,2.0,54,0.00,,,0.00,Wunderground v.1.15,2013-04-21 06:34:00,
2013-04-21 02:39:00,43.4,27.8,30.41,WNW,303,2.0,2.0,54,0.00,,,0.00,Wunderground v.1.15,2013-04-21 06:39:00,
2013-04-21 02:44:00,43.0,28.4,30.41,NW,317,0.0,2.0,56,0.00,,,0.00,Wunderground v.1.15,2013-04-21 06:44:00,
2013-04-21 02:49:00,42.9,27.8,30.41,West,265,0.0,4.0,55,0.00,,,0.00,Wunderground v.1.15,2013-04-21 06:49:00,
2013-04-21 02:54:00,42.5,28.3,30.41,West,265,1.0,2.0,57,0.00,,,0.00,Wunderground v.1.15,2013-04-21 06:54:00,
2013-04-21 02:59:00,42.3,28.6,30.42,West,267,2.0,6.0,58,0.00,,,0.00,Wunderground v.1.15,2013-04-21 06:59:00,
2013-04-21 03:04:00,42.2,28.9,30.42,West,275,1.0,4.0,59,0.00,,,0.00,Wunderground v.1.15,2013-04-21 07:04:00,
2013-04-21 03:09:00,42.3,28.6,30.42,WNW,284,3.0,6.0,58,0.00,,,0.00,Wunderground v.1.15,2013-04-21 07:09:00,
2013-04-21 03:14:00,42.3,28.6,30.42,WNW,284,1.0,3.0,58,0.00,,,0.00,Wunderground v.1.15,2013-04-21 07:14:00,
2013-04-21 03:19:00,42.3,28.1,30.42,West,280,2.0,4.0,57,0.00,,,0.00,Wunderground v.1.15,2013-04-21 07:19:00,
2013-04-21 03:24:00,42.1,28.4,30.42,West,280,0.0,3.0,58,0.00,,,0.00,Wunderground v.1.15,2013-04-21 07:24:00,
2013-04-21 03:29:00,42.0,28.3,30.43,WNW,300,2.0,3.0,58,0.00,,,0.00,Wunderground v.1.15,2013-04-21 07:29:00,
2013-04-21 03:34:00,42.0,28.3,30.43,WNW,300,1.0,2.0,58,0.00,,,0.00,Wunderground v.1.15,2013-04-21 07:34:00,
2013-04-21 03:39:00,42.0,28.3,30.43,NNW,340,2.0,6.0,58,0.00,,,0.00,Wunderground v.1.15,2013-04-21 07:39:00,
2013-04-21 03:44:00,42.1,28.4,30.43,NNW,340,2.0,2.0,58,0.00,,,0.00,Wunderground v.1.15,2013-04-21 07:44:00,
2013-04-21 03:49:00,42.0,27.9,30.44,NNW,340,0.0,3.0,57,0.00,,,0.00,Wunderground v.1.15,2013-04-21 07:49:00,
2013-04-21 03:54:00,41.9,28.2,30.44,NNW,347,1.0,2.0,58,0.00,,,0.00,Wunderground v.1.15,2013-04-21 07:54:00,
2013-04-21 03:59:00,41.8,28.1,30.44,SW,222,0.0,2.0,58,0.00,,,0.00,Wunderground v.1.15,2013-04-21 07:59:00,
2013-04-21 04:04:00,41.3,28.0,30.44,SW,222,0.0,1.0,59,0.00,,,0.00,Wunderground v.1.15,2013-04-21 08:04:00,
2013-04-21 04:09:00,41.0,28.2,30.45,West,265,1.0,2.0,60,0.00,,,0.00,Wunderground v.1.15,2013-04-21 08:09:00,
2013-04-21 04:15:00,40.9,28.1,30.45,West,265,1.0,2.0,60,0.00,,,0.00,Wunderground v.1.15,2013-04-21 08:15:00,
2013-04-21 04:20:00,40.7,28.3,30.45,West,265,1.0,2.0,61,0.00,,,0.00,Wunderground v.1.15,2013-04-21 08:20:00,
2013-04-21 04:25:00,40.6,28.2,30.45,West,265,0.0,2.0,61,0.00,,,0.00,Wunderground v.1.15,2013-04-21 08:25:00,
2013-04-21 04:30:00,40.2,28.2,30.46,West,265,0.0,0.0,62,0.00,,,0.00,Wunderground v.1.15,2013-04-21 08:30:00,
2013-04-21 04:35:00,39.9,28.3,30.46,West,265,0.0,1.0,63,0.00,,,0.00,Wunderground v.1.15,2013-04-21 08:35:00,
2013-04-21 04:40:00,39.8,28.6,30.46,NW,306,1.0,1.0,64,0.00,,,0.00,Wunderground v.1.15,2013-04-21 08:40:00,
2013-04-21 04:45:00,39.9,28.3,30.47,NW,306,1.0,2.0,63,0.00,,,0.00,Wunderground v.1.15,2013-04-21 08:45:00,
2013-04-21 04:50:00,39.9,27.9,30.47,NW,306,0.0,1.0,62,0.00,,,0.00,Wunderground v.1.15,2013-04-21 08:50:00,
2013-04-21 04:55:00,39.9,28.3,30.47,NW,306,0.0,1.0,63,0.00,,,0.00,Wunderground v.1.15,2013-04-21 08:55:00,
2013-04-21 05:00:00,39.8,28.2,30.47,ENE,57,2.0,3.0,63,0.00,,,0.00,Wunderground v.1.15,2013-04-21 09:00:00,
2013-04-21 05:05:00,39.8,27.8,30.48,NW,304,3.0,3.0,62,0.00,,,0.00,Wunderground v.1.15,2013-04-21 09:05:00,
2013-04-21 05:10:00,39.8,28.2,30.48,NNW,347,1.0,2.0,63,0.00,,,0.00,Wunderground v.1.15,2013-04-21 09:10:00,
2013-04-21 05:15:00,39.7,27.7,30.48,NNW,340,1.0,3.0,62,0.00,,,0.00,Wunderground v.1.15,2013-04-21 09:15:00,
2013-04-21 05:20:00,39.5,27.5,30.48,NE,36,1.0,1.0,62,0.00,,,0.00,Wunderground v.1.15,2013-04-21 09:20:00,
2013-04-21 05:25:00,39.4,27.5,30.49,WNW,293,1.0,2.0,62,0.00,,,0.00,Wunderground v.1.15,2013-04-21 09:25:00,
2013-04-21 05:30:00,39.5,27.5,30.49,WNW,292,4.0,4.0,62,0.00,,,0.00,Wunderground v.1.15,2013-04-21 09:30:00,
2013-04-21 05:35:00,39.3,27.4,30.49,WNW,297,2.0,4.0,62,0.00,,,0.00,Wunderground v.1.15,2013-04-21 09:35:00,
2013-04-21 05:40:00,39.1,27.6,30.50,WNW,286,1.0,1.0,63,0.00,,,0.00,Wunderground v.1.15,2013-04-21 09:40:00,
2013-04-21 05:45:00,39.1,27.2,30.50,NNW,340,0.0,3.0,62,0.00,,,0.00,Wunderground v.1.15,2013-04-21 09:45:00,
2013-04-21 05:50:00,39.2,26.9,30.50,NNW,344,1.0,4.0,61,0.00,,,0.00,Wunderground v.1.15,2013-04-21 09:50:00,
2013-04-21 05:55:00,39.1,26.8,30.51,NW,308,2.0,4.0,61,0.00,,,0.00,Wunderground v.1.15,2013-04-21 09:55:00,
2013-04-21 06:00:00,39.1,26.4,30.51,West,259,1.0,2.0,60,0.00,,,0.00,Wunderground v.1.15,2013-04-21 10:00:00,
2013-04-21 06:05:00,39.1,26.0,30.51,NW,318,1.0,3.0,59,0.00,,,0.00,Wunderground v.1.15,2013-04-21 10:05:00,
2013-04-21 06:10:00,38.9,26.2,30.52,NNW,340,3.0,3.0,60,0.00,,,0.00,Wunderground v.1.15,2013-04-21 10:10:00,
2013-04-21 06:15:00,38.9,25.8,30.52,NNW,340,0.0,3.0,59,0.00,,,0.00,Wunderground v.1.15,2013-04-21 10:15:00,
2013-04-21 06:20:00,38.7,26.0,30.52,NNW,340,0.0,1.0,60,0.00,,,0.00,Wunderground v.1.15,2013-04-21 10:20:00,
2013-04-21 06:25:00,38.5,26.6,30.53,NNW,340,0.0,2.0,62,0.00,,,0.00,Wunderground v.1.15,2013-04-21 10:25:00,
2013-04-21 06:31:00,38.6,26.3,30.53,WNW,285,1.0,1.0,61,0.00,,,0.00,Wunderground v.1.15,2013-04-21 10:31:00,
2013-04-21 06:36:00,38.4,26.1,30.54,WNW,285,0.0,1.0,61,0.00,,,0.00,Wunderground v.1.15,2013-04-21 10:36:00,
2013-04-21 06:41:00,38.3,26.4,30.54,WNW,285,1.0,1.0,62,0.00,,,0.00,Wunderground v.1.15,2013-04-21 10:41:00,
2013-04-21 06:46:00,38.0,26.1,30.54,WNW,285,1.0,2.0,62,0.00,,,0.00,Wunderground v.1.15,2013-04-21 10:46:00,
2013-04-21 06:51:00,37.8,27.1,30.54,WNW,285,1.0,1.0,65,0.00,,,0.00,Wunderground v.1.15,2013-04-21 10:51:00,
2013-04-21 06:56:00,37.8,27.1,30.55,WNW,285,1.0,2.0,65,0.00,,,0.00,Wunderground v.1.15,2013-04-21 10:56:00,
2013-04-21 07:01:00,38.0,27.6,30.55,WNW,285,0.0,1.0,66,0.00,,,0.00,Wunderground v.1.15,2013-04-21 11:01:00,
2013-04-21 07:06:00,38.3,26.8,30.56,WNW,300,1.0,4.0,63,0.00,,,0.00,Wunderground v.1.15,2013-04-21 11:06:00,
2013-04-21 07:11:00,39.0,26.7,30.56,WNW,300,0.0,1.0,61,0.00,,,0.00,Wunderground v.1.15,2013-04-21 11:11:00,
2013-04-21 07:16:00,39.3,26.6,30.56,WNW,295,0.0,2.0,60,0.00,,,0.00,Wunderground v.1.15,2013-04-21 11:16:00,
2013-04-21 07:21:00,39.8,27.0,30.56,WNW,296,2.0,2.0,60,0.00,,,0.00,Wunderground v.1.15,2013-04-21 11:21:00,
2013-04-21 07:26:00,40.1,26.9,30.57,NW,315,2.0,4.0,59,0.00,,,0.00,Wunderground v.1.15,2013-04-21 11:26:00,
2013-04-21 07:31:00,40.5,26.9,30.57,West,265,0.0,4.0,58,0.00,,,0.00,Wunderground v.1.15,2013-04-21 11:31:00,
2013-04-21 07:36:00,41.0,26.1,30.57,East,85,2.0,4.0,55,0.00,,,0.00,Wunderground v.1.15,2013-04-21 11:36:00,
2013-04-21 07:41:00,41.1,25.7,30.57,NNW,335,5.0,5.0,54,0.00,,,0.00,Wunderground v.1.15,2013-04-21 11:41:00,
2013-04-21 07:46:00,41.3,25.0,30.57,WNW,299,3.0,5.0,52,0.00,,,0.00,Wunderground v.1.15,2013-04-21 11:46:00,
2013-04-21 07:51:00,41.5,26.1,30.57,NE,41,2.0,2.0,54,0.00,,,0.00,Wunderground v.1.15,2013-04-21 11:51:00,
2013-04-21 07:56:00,41.5,24.2,30.57,SW,223,2.0,9.0,50,0.00,,,0.00,Wunderground v.1.15,2013-04-21 11:56:00,
2013-04-21 08:01:00,41.9,25.5,30.58,NNW,340,3.0,3.0,52,0.00,,,0.00,Wunderground v.1.15,2013-04-21 12:01:00,
2013-04-21 08:06:00,42.4,25.5,30.58,ENE,63,5.0,5.0,51,0.00,,,0.00,Wunderground v.1.15,2013-04-21 12:06:00,
2013-04-21 08:11:00,42.5,24.2,30.58,West,271,1.0,2.0,48,0.00,,,0.00,Wunderground v.1.15,2013-04-21 12:11:00,
2013-04-21 08:16:00,42.5,24.7,30.58,NNE,17,0.0,9.0,49,0.00,,,0.00,Wunderground v.1.15,2013-04-21 12:16:00,
2013-04-21 08:21:00,42.6,23.8,30.58,East,100,2.0,3.0,47,0.00,,,0.00,Wunderground v.1.15,2013-04-21 12:21:00,
2013-04-21 08:26:00,43.2,25.3,30.58,West,275,1.0,5.0,49,0.00,,,0.00,Wunderground v.1.15,2013-04-21 12:26:00,
2013-04-21 08:31:00,43.1,23.7,30.59,NNW,340,4.0,6.0,46,0.00,,,0.00,Wunderground v.1.15,2013-04-21 12:31:00,
2013-04-21 08:36:00,43.2,24.8,30.59,WNW,296,1.0,6.0,48,0.00,,,0.00,Wunderground v.1.15,2013-04-21 12:36:00,
2013-04-21 08:41:00,43.2,24.3,30.59,WNW,292,5.0,11.0,47,0.00,,,0.00,Wunderground v.1.15,2013-04-21 12:41:00,
2013-04-21 08:46:00,43.3,23.4,30.59,West,271,3.0,11.0,45,0.00,,,0.00,Wunderground v.1.15,2013-04-21 12:46:00,
2013-04-21 08:51:00,43.5,25.1,30.59,WSW,255,3.0,4.0,48,0.00,,,0.00,Wunderground v.1.15,2013-04-21 12:51:00,
2013-04-21 08:56:00,43.3,24.4,30.59,WSW,251,2.0,5.0,47,0.00,,,0.00,Wunderground v.1.15,2013-04-21 12:56:00,
2013-04-21 09:01:00,44.0,25.0,30.59,WNW,288,2.0,3.0,47,0.00,,,0.00,Wunderground v.1.15,2013-04-21 13:01:00,
2013-04-21 09:06:00,43.9,22.8,30.59,WNW,302,0.0,7.0,43,0.00,,,0.00,Wunderground v.1.15,2013-04-21 13:06:00,
2013-04-21 09:11:00,44.5,25.0,30.59,WNW,298,2.0,7.0,46,0.00,,,0.00,Wunderground v.1.15,2013-04-21 13:11:00,
2013-04-21 09:16:00,44.8,24.7,30.59,WNW,289,1.0,7.0,45,0.00,,,0.00,Wunderground v.1.15,2013-04-21 13:16:00,
2013-04-21 09:21:00,45.3,26.2,30.59,WNW,292,4.0,6.0,47,0.00,,,0.00,Wunderground v.1.15,2013-04-21 13:21:00,
2013-04-21 09:26:00,45.3,23.5,30.60,WNW,303,2.0,6.0,42,0.00,,,0.00,Wunderground v.1.15,2013-04-21 13:26:00,
2013-04-21 09:31:00,44.9,23.2,30.60,North,360,1.0,4.0,42,0.00,,,0.00,Wunderground v.1.15,2013-04-21 13:31:00,
2013-04-21 09:36:00,45.4,24.7,30.60,West,268,3.0,7.0,44,0.00,,,0.00,Wunderground v.1.15,2013-04-21 13:36:00,
2013-04-21 09:41:00,45.1,24.5,30.60,West,276,6.0,10.0,44,0.00,,,0.00,Wunderground v.1.15,2013-04-21 13:41:00,
2013-04-21 09:46:00,45.2,24.6,30.60,WSW,239,2.0,10.0,44,0.00,,,0.00,Wunderground v.1.15,2013-04-21 13:46:00,
2013-04-21 09:51:00,46.0,25.3,30.60,NNE,30,2.0,6.0,44,0.00,,,0.00,Wunderground v.1.15,2013-04-21 13:51:00,
2013-04-21 09:56:00,46.1,25.4,30.60,NNW,340,5.0,9.0,44,0.00,,,0.00,Wunderground v.1.15,2013-04-21 13:56:00,
2013-04-21 10:01:00,45.9,24.6,30.60,West,277,4.0,7.0,43,0.00,,,0.00,Wunderground v.1.15,2013-04-21 14:01:00,
2013-04-21 10:06:00,46.3,25.6,30.60,WNW,284,8.0,11.0,44,0.00,,,0.00,Wunderground v.1.15,2013-04-21 14:06:00,
2013-04-21 10:11:00,46.3,26.1,30.61,WNW,282,7.0,8.0,45,0.00,,,0.00,Wunderground v.1.15,2013-04-21 14:11:00,
2013-04-21 10:17:00,46.6,27.4,30.61,West,275,6.0,8.0,47,0.00,,,0.00,Wunderground v.1.15,2013-04-21 14:17:00,
2013-04-21 10:22:00,46.8,27.6,30.61,WSW,252,3.0,5.0,47,0.00,,,0.00,Wunderground v.1.15,2013-04-21 14:22:00,
2013-04-21 10:26:00,46.9,26.1,30.61,West,281,5.0,5.0,44,0.00,,,0.00,Wunderground v.1.15,2013-04-21 14:26:00,
2013-04-21 10:32:00,47.6,27.3,30.61,SW,217,2.0,6.0,45,0.00,,,0.00,Wunderground v.1.15,2013-04-21 14:32:00,
2013-04-21 10:37:00,47.3,25.9,30.61,NW,308,4.0,12.0,43,0.00,,,0.00,Wunderground v.1.15,2013-04-21 14:37:00,
2013-04-21 10:42:00,45.8,26.2,30.61,WNW,284,3.0,8.0,46,0.00,,,0.00,Wunderground v.1.15,2013-04-21 14:42:00,
2013-04-21 10:47:00,45.9,25.2,30.61,NNW,330,1.0,8.0,44,0.00,,,0.00,Wunderground v.1.15,2013-04-21 14:47:00,
2013-04-21 10:52:00,46.8,27.1,30.61,WNW,292,1.0,4.0,46,0.00,,,0.00,Wunderground v.1.15,2013-04-21 14:52:00,
2013-04-21 10:57:00,48.3,27.9,30.61,West,281,2.0,9.0,45,0.00,,,0.00,Wunderground v.1.15,2013-04-21 14:57:00,
2013-04-21 11:02:00,48.1,28.3,30.61,West,263,7.0,8.0,46,0.00,,,0.00,Wunderground v.1.15,2013-04-21 15:02:00,
2013-04-21 11:07:00,48.2,26.2,30.61,North,7,2.0,10.0,42,0.00,,,0.00,Wunderground v.1.15,2013-04-21 15:07:00,
2013-04-21 11:12:00,47.4,26.0,30.61,NNW,330,2.0,6.0,43,0.00,,,0.00,Wunderground v.1.15,2013-04-21 15:12:00,
2013-04-21 11:17:00,48.2,25.6,30.61,WSW,243,3.0,8.0,41,0.00,,,0.00,Wunderground v.1.15,2013-04-21 15:17:00,
2013-04-21 11:22:00,48.7,27.2,30.61,SE,145,2.0,4.0,43,0.00,,,0.00,Wunderground v.1.15,2013-04-21 15:22:00,
2013-04-21 11:27:00,49.0,26.9,30.61,West,279,7.0,11.0,42,0.00,,,0.00,Wunderground v.1.15,2013-04-21 15:27:00,
2013-04-21 11:32:00,49.7,30.8,30.61,West,279,5.0,9.0,48,0.00,,,0.00,Wunderground v.1.15,2013-04-21 15:32:00,
2013-04-21 11:37:00,49.0,28.0,30.61,West,277,7.0,9.0,44,0.00,,,0.00,Wunderground v.1.15,2013-04-21 15:37:00,
2013-04-21 11:42:00,49.1,28.1,30.60,WNW,300,11.0,11.0,44,0.00,,,0.00,Wunderground v.1.15,2013-04-21 15:42:00,
2013-04-21 11:47:00,49.7,26.3,30.61,SSW,212,2.0,12.0,40,0.00,,,0.00,Wunderground v.1.15,2013-04-21 15:47:00,
2013-04-21 11:52:00,49.5,28.5,30.61,WNW,302,2.0,8.0,44,0.00,,,0.00,Wunderground v.1.15,2013-04-21 15:52:00,
2013-04-21 11:57:00,49.1,27.5,30.61,WNW,287,8.0,9.0,43,0.00,,,0.00,Wunderground v.1.15,2013-04-21 15:57:00,
2013-04-21 12:02:00,48.9,27.9,30.61,West,260,1.0,4.0,44,0.00,,,0.00,Wunderground v.1.15,2013-04-21 16:02:00,
2013-04-21 12:07:00,50.4,30.4,30.60,NW,313,5.0,5.0,46,0.00,,,0.00,Wunderground v.1.15,2013-04-21 16:07:00,
2013-04-21 12:12:00,51.1,29.9,30.60,SSW,194,0.0,7.0,44,0.00,,,0.00,Wunderground v.1.15,2013-04-21 16:12:00,
2013-04-21 12:17:00,49.2,25.3,30.60,ENE,59,8.0,14.0,39,0.00,,,0.00,Wunderground v.1.15,2013-04-21 16:17:00,
2013-04-21 12:22:00,50.6,27.1,30.59,NE,38,3.0,7.0,40,0.00,,,0.00,Wunderground v.1.15,2013-04-21 16:22:00,
2013-04-21 12:27:00,50.1,29.0,30.60,WNW,294,5.0,11.0,44,0.00,,,0.00,Wunderground v.1.15,2013-04-21 16:27:00,
2013-04-21 12:32:00,50.9,30.3,30.59,West,271,0.0,6.0,45,0.00,,,0.00,Wunderground v.1.15,2013-04-21 16:32:00,
2013-04-21 12:38:00,51.2,32.2,30.59,WNW,284,5.0,6.0,48,0.00,,,0.00,Wunderground v.1.15,2013-04-21 16:38:00,
2013-04-21 12:43:00,51.5,30.3,30.60,WNW,292,3.0,6.0,44,0.00,,,0.00,Wunderground v.1.15,2013-04-21 16:43:00,
2013-04-21 12:48:00,50.3,27.5,30.59,North,355,4.0,8.0,41,0.00,,,0.00,Wunderground v.1.15,2013-04-21 16:48:00,
2013-04-21 12:53:00,51.2,28.9,30.59,ENE,69,1.0,5.0,42,0.00,,,0.00,Wunderground v.1.15,2013-04-21 16:53:00,
2013-04-21 12:58:00,51.4,30.2,30.59,WNW,298,3.0,7.0,44,0.00,,,0.00,Wunderground v.1.15,2013-04-21 16:58:00,
2013-04-21 13:03:00,50.5,25.8,30.59,ENE,68,6.0,10.0,38,0.00,,,0.00,Wunderground v.1.15,2013-04-21 17:03:00,
2013-04-21 13:08:00,50.2,29.1,30.59,North,357,4.0,10.0,44,0.00,,,0.00,Wunderground v.1.15,2013-04-21 17:08:00,
2013-04-21 13:13:00,52.6,31.8,30.59,WNW,297,1.0,5.0,45,0.00,,,0.00,Wunderground v.1.15,2013-04-21 17:13:00,
2013-04-21 13:18:00,51.4,28.5,30.58,NNW,346,2.0,5.0,41,0.00,,,0.00,Wunderground v.1.15,2013-04-21 17:18:00,
2013-04-21 13:23:00,51.9,31.7,30.58,WSW,250,5.0,8.0,46,0.00,,,0.00,Wunderground v.1.15,2013-04-21 17:23:00,
2013-04-21 13:28:00,53.0,29.3,30.58,WNW,286,5.0,8.0,40,0.00,,,0.00,Wunderground v.1.15,2013-04-21 17:28:00,
2013-04-21 13:33:00,51.6,24.8,30.58,NNW,340,0.0,4.0,35,0.00,,,0.00,Wunderground v.1.15,2013-04-21 17:33:00,
2013-04-21 13:38:00,51.3,25.2,30.58,NE,53,2.0,8.0,36,0.00,,,0.00,Wunderground v.1.15,2013-04-21 17:38:00,
2013-04-21 13:43:00,51.5,27.3,30.58,West,276,5.0,10.0,39,0.00,,,0.00,Wunderground v.1.15,2013-04-21 17:43:00,
2013-04-21 13:48:00,52.6,27.7,30.58,WNW,290,3.0,10.0,38,0.00,,,0.00,Wunderground v.1.15,2013-04-21 17:48:00,
2013-04-21 13:53:00,51.4,26.6,30.58,ENE,78,3.0,5.0,38,0.00,,,0.00,Wunderground v.1.15,2013-04-21 17:53:00,
2013-04-21 13:58:00,52.7,30.2,30.58,WSW,255,3.0,12.0,42,0.00,,,0.00,Wunderground v.1.15,2013-04-21 17:58:00,
2013-04-21 14:04:00,53.3,31.4,30.57,NW,316,1.0,8.0,43,0.00,,,0.00,Wunderground v.1.15,2013-04-21 18:04:00,
2013-04-21 14:09:00,53.6,29.8,30.58,WNW,302,3.0,8.0,40,0.00,,,0.00,Wunderground v.1.15,2013-04-21 18:09:00,
2013-04-21 14:14:00,52.9,28.6,30.58,NW,319,2.0,5.0,39,0.00,,,0.00,Wunderground v.1.15,2013-04-21 18:14:00,
2013-04-21 14:19:00,51.2,25.1,30.58,WNW,301,2.0,5.0,36,0.00,,,0.00,Wunderground v.1.15,2013-04-21 18:19:00,
2013-04-21 14:24:00,51.8,26.3,30.58,East,89,2.0,5.0,37,0.00,,,0.00,Wunderground v.1.15,2013-04-21 18:24:00,
2013-04-21 14:29:00,53.9,33.0,30.57,SE,132,0.0,8.0,45,0.00,,,0.00,Wunderground v.1.15,2013-04-21 18:29:00,
2013-04-21 14:34:00,53.9,27.5,30.57,West,267,6.0,9.0,36,0.00,,,0.00,Wunderground v.1.15,2013-04-21 18:34:00,
2013-04-21 14:39:00,54.5,30.0,30.57,NW,305,3.0,9.0,39,0.00,,,0.00,Wunderground v.1.15,2013-04-21 18:39:00,
2013-04-21 14:44:00,53.1,24.0,30.57,NNW,335,2.0,5.0,32,0.00,,,0.00,Wunderground v.1.15,2013-04-21 18:44:00,
2013-04-21 14:49:00,53.5,27.8,30.57,WNW,285,6.0,8.0,37,0.00,,,0.00,Wunderground v.1.15,2013-04-21 18:49:00,
2013-04-21 14:54:00,54.2,29.1,30.57,West,274,4.0,9.0,38,0.00,,,0.00,Wunderground v.1.15,2013-04-21 18:54:00,
2013-04-21 14:59:00,54.6,30.7,30.56,WNW,285,7.0,9.0,40,0.00,,,0.00,Wunderground v.1.15,2013-04-21 18:59:00,
2013-04-21 15:04:00,52.5,24.9,30.56,NE,50,2.0,7.0,34,0.00,,,0.00,Wunderground v.1.15,2013-04-21 19:04:00,
2013-04-21 15:09:00,53.2,25.5,30.56,NNW,330,4.0,8.0,34,0.00,,,0.00,Wunderground v.1.15,2013-04-21 19:09:00,
2013-04-21 15:14:00,53.4,23.5,30.56,ENE,65,0.0,6.0,31,0.00,,,0.00,Wunderground v.1.15,2013-04-21 19:14:00,
2013-04-21 15:19:00,53.3,28.9,30.55,West,265,2.0,6.0,39,0.00,,,0.00,Wunderground v.1.15,2013-04-21 19:19:00,
2013-04-21 15:24:00,54.4,31.2,30.55,NNW,335,4.0,7.0,41,0.00,,,0.00,Wunderground v.1.15,2013-04-21 19:24:00,
2013-04-21 15:29:00,54.8,30.3,30.55,WNW,295,1.0,7.0,39,0.00,,,0.00,Wunderground v.1.15,2013-04-21 19:29:00,
2013-04-21 15:34:00,54.1,27.7,30.55,NE,48,1.0,4.0,36,0.00,,,0.00,Wunderground v.1.15,2013-04-21 19:34:00,
2013-04-21 15:39:00,53.6,26.6,30.55,WNW,282,2.0,4.0,35,0.00,,,0.00,Wunderground v.1.15,2013-04-21 19:39:00,
2013-04-21 15:44:00,54.1,29.0,30.55,WNW,289,3.0,4.0,38,0.00,,,0.00,Wunderground v.1.15,2013-04-21 19:44:00,
2013-04-21 15:49:00,53.5,27.2,30.55,East,92,5.0,5.0,36,0.00,,,0.00,Wunderground v.1.15,2013-04-21 19:49:00,
2013-04-21 15:54:00,54.4,29.9,30.55,WNW,293,2.0,3.0,39,0.00,,,0.00,Wunderground v.1.15,2013-04-21 19:54:00,
2013-04-21 15:59:00,53.9,26.8,30.55,WNW,289,3.0,6.0,35,0.00,,,0.00,Wunderground v.1.15,2013-04-21 19:59:00,
2013-04-21 16:04:00,53.9,28.8,30.55,West,266,3.0,6.0,38,0.00,,,0.00,Wunderground v.1.15,2013-04-21 20:04:00,
2013-04-21 16:09:00,54.0,24.0,30.55,NW,325,1.0,6.0,31,0.00,,,0.00,Wunderground v.1.15,2013-04-21 20:09:00,
2013-04-21 16:14:00,53.6,27.9,30.55,WNW,284,8.0,8.0,37,0.00,,,0.00,Wunderground v.1.15,2013-04-21 20:14:00,
2013-04-21 16:19:00,53.7,26.0,30.55,WNW,289,1.0,9.0,34,0.00,,,0.00,Wunderground v.1.15,2013-04-21 20:19:00,
2013-04-21 16:24:00,53.4,23.5,30.55,NE,40,3.0,5.0,31,0.00,,,0.00,Wunderground v.1.15,2013-04-21 20:24:00,
2013-04-21 16:29:00,53.2,26.2,30.55,WNW,292,0.0,5.0,35,0.00,,,0.00,Wunderground v.1.15,2013-04-21 20:29:00,
2013-04-21 16:34:00,53.1,25.4,30.55,WNW,284,0.0,2.0,34,0.00,,,0.00,Wunderground v.1.15,2013-04-21 20:34:00,
2013-04-21 16:39:00,53.1,26.1,30.54,NE,52,2.0,3.0,35,0.00,,,0.00,Wunderground v.1.15,2013-04-21 20:39:00,
2013-04-21 16:44:00,53.3,24.9,30.54,West,259,0.0,4.0,33,0.00,,,0.00,Wunderground v.1.15,2013-04-21 20:44:00,
2013-04-21 16:49:00,53.0,26.0,30.54,NNW,340,2.0,5.0,35,0.00,,,0.00,Wunderground v.1.15,2013-04-21 20:49:00,
2013-04-21 16:54:00,54.0,28.9,30.55,WNW,299,2.0,4.0,38,0.00,,,0.00,Wunderground v.1.15,2013-04-21 20:54:00,
2013-04-21 16:59:00,53.7,26.0,30.55,West,275,3.0,7.0,34,0.00,,,0.00,Wunderground v.1.15,2013-04-21 20:59:00,
2013-04-21 17:04:00,54.1,27.7,30.55,West,272,1.0,4.0,36,0.00,,,0.00,Wunderground v.1.15,2013-04-21 21:04:00,
2013-04-21 17:09:00,54.6,30.7,30.55,West,270,1.0,5.0,40,0.00,,,0.00,Wunderground v.1.15,2013-04-21 21:09:00,
2013-04-21 17:14:00,54.6,30.1,30.55,WNW,296,3.0,4.0,39,0.00,,,0.00,Wunderground v.1.15,2013-04-21 21:14:00,
2013-04-21 17:19:00,53.8,26.8,30.54,East,99,1.0,8.0,35,0.00,,,0.00,Wunderground v.1.15,2013-04-21 21:19:00,
2013-04-21 17:24:00,53.3,26.3,30.54,NE,49,3.0,3.0,35,0.00,,,0.00,Wunderground v.1.15,2013-04-21 21:24:00,
2013-04-21 17:29:00,53.7,26.7,30.55,NE,51,3.0,4.0,35,0.00,,,0.00,Wunderground v.1.15,2013-04-21 21:29:00,
2013-04-21 17:34:00,53.5,27.2,30.55,ENE,78,2.0,5.0,36,0.00,,,0.00,Wunderground v.1.15,2013-04-21 21:34:00,
2013-04-21 17:39:00,54.1,28.4,30.55,ESE,123,0.0,7.0,37,0.00,,,0.00,Wunderground v.1.15,2013-04-21 21:39:00,
2013-04-21 17:44:00,54.9,27.0,30.55,NE,55,3.0,8.0,34,0.00,,,0.00,Wunderground v.1.15,2013-04-21 21:44:00,
2013-04-21 17:49:00,54.5,26.0,30.55,ENE,73,3.0,8.0,33,0.00,,,0.00,Wunderground v.1.15,2013-04-21 21:49:00,
2013-04-21 17:54:00,54.4,26.6,30.55,North,8,2.0,5.0,34,0.00,,,0.00,Wunderground v.1.15,2013-04-21 21:54:00,
2013-04-21 17:59:00,54.0,25.5,30.55,ENE,57,0.0,5.0,33,0.00,,,0.00,Wunderground v.1.15,2013-04-21 21:59:00,
2013-04-21 18:04:00,54.2,25.7,30.55,NE,54,3.0,7.0,33,0.00,,,0.00,Wunderground v.1.15,2013-04-21 22:04:00,
2013-04-21 18:09:00,54.2,25.7,30.55,ENE,65,6.0,7.0,33,0.00,,,0.00,Wunderground v.1.15,2013-04-21 22:09:00,
2013-04-21 18:14:00,54.2,24.9,30.55,ENE,57,3.0,6.0,32,0.00,,,0.00,Wunderground v.1.15,2013-04-21 22:14:00,
2013-04-21 18:19:00,53.5,24.3,30.55,NE,49,3.0,7.0,32,0.00,,,0.00,Wunderground v.1.15,2013-04-21 22:19:00,
2013-04-21 18:24:00,53.1,24.7,30.55,ENE,61,3.0,6.0,33,0.00,,,0.00,Wunderground v.1.15,2013-04-21 22:24:00,
2013-04-21 18:29:00,53.0,26.7,30.56,East,80,3.0,7.0,36,0.00,,,0.00,Wunderground v.1.15,2013-04-21 22:29:00,
2013-04-21 18:34:00,53.0,28.0,30.56,NE,41,2.0,8.0,38,0.00,,,0.00,Wunderground v.1.15,2013-04-21 22:34:00,
2013-04-21 18:39:00,52.8,27.2,30.55,East,94,2.0,8.0,37,0.00,,,0.00,Wunderground v.1.15,2013-04-21 22:39:00,
2013-04-21 18:44:00,52.7,27.8,30.55,East,98,1.0,7.0,38,0.00,,,0.00,Wunderground v.1.15,2013-04-21 22:44:00,
2013-04-21 18:49:00,52.6,27.0,30.55,NE,55,2.0,7.0,37,0.00,,,0.00,Wunderground v.1.15,2013-04-21 22:49:00,
2013-04-21 18:54:00,52.5,28.2,30.56,ENE,78,5.0,9.0,39,0.00,,,0.00,Wunderground v.1.15,2013-04-21 22:54:00,
2013-04-21 18:59:00,51.7,29.9,30.56,East,97,4.0,9.0,43,0.00,,,0.00,Wunderground v.1.15,2013-04-21 22:59:00,
2013-04-21 19:04:00,51.4,30.2,30.56,NE,55,3.0,6.0,44,0.00,,,0.00,Wunderground v.1.15,2013-04-21 23:04:00,
2013-04-21 19:09:00,51.3,30.1,30.56,North,9,2.0,6.0,44,0.00,,,0.00,Wunderground v.1.15,2013-04-21 23:09:00,
2013-04-21 19:14:00,51.0,30.4,30.56,East,90,3.0,6.0,45,0.00,,,0.00,Wunderground v.1.15,2013-04-21 23:14:00,
2013-04-21 19:19:00,50.8,30.2,30.56,East,97,0.0,6.0,45,0.00,,,0.00,Wunderground v.1.15,2013-04-21 23:19:00,
2013-04-21 19:24:00,50.6,29.5,30.56,ESE,123,1.0,9.0,44,0.00,,,0.00,Wunderground v.1.15,2013-04-21 23:24:00,
2013-04-21 19:29:00,50.4,29.3,30.56,ESE,110,4.0,9.0,44,0.00,,,0.00,Wunderground v.1.15,2013-04-21 23:29:00,
2013-04-21 19:34:00,50.2,29.7,30.56,East,88,3.0,7.0,45,0.00,,,0.00,Wunderground v.1.15,2013-04-21 23:34:00,
2013-04-21 19:39:00,49.9,28.8,30.56,NE,56,1.0,8.0,44,0.00,,,0.00,Wunderground v.1.15,2013-04-21 23:39:00,
2013-04-21 19:44:00,49.7,28.6,30.56,ENE,73,8.0,8.0,44,0.00,,,0.00,Wunderground v.1.15,2013-04-21 23:44:00,
2013-04-21 19:50:00,49.6,28.6,30.57,ENE,64,3.0,8.0,44,0.00,,,0.00,Wunderground v.1.15,2013-04-21 23:50:00,
2013-04-21 19:55:00,49.4,28.9,30.57,East,80,1.0,6.0,45,0.00,,,0.00,Wunderground v.1.15,2013-04-21 23:55:00,
2013-04-21 20:00:00,49.2,29.3,30.57,ENE,71,2.0,6.0,46,0.00,,,0.00,Wunderground v.1.15,2013-04-22 00:00:00,
2013-04-21 20:05:00,49.2,28.7,30.57,NE,36,1.0,6.0,45,0.00,,,0.00,Wunderground v.1.15,2013-04-22 00:05:00,
2013-04-21 20:10:00,49.0,29.1,30.57,ENE,78,3.0,6.0,46,0.00,,,0.00,Wunderground v.1.15,2013-04-22 00:10:00,
2013-04-21 20:15:00,48.9,29.0,30.57,ENE,78,1.0,3.0,46,0.00,,,0.00,Wunderground v.1.15,2013-04-22 00:15:00,
2013-04-21 20:20:00,48.8,28.9,30.57,ENE,78,1.0,1.0,46,0.00,,,0.00,Wunderground v.1.15,2013-04-22 00:20:00,
2013-04-21 20:25:00,48.7,28.3,30.57,East,96,4.0,4.0,45,0.00,,,0.00,Wunderground v.1.15,2013-04-22 00:25:00,
2013-04-21 20:30:00,48.5,28.1,30.57,ENE,59,1.0,2.0,45,0.00,,,0.00,Wunderground v.1.15,2013-04-22 00:30:00,
2013-04-21 20:35:00,48.5,28.6,30.57,ENE,67,2.0,4.0,46,0.00,,,0.00,Wunderground v.1.15,2013-04-22 00:35:00,
2013-04-21 20:40:00,48.3,29.0,30.58,NE,36,1.0,2.0,47,0.00,,,0.00,Wunderground v.1.15,2013-04-22 00:40:00,
2013-04-21 20:45:00,48.2,28.9,30.58,ENE,66,1.0,3.0,47,0.00,,,0.00,Wunderground v.1.15,2013-04-22 00:45:00,
2013-04-21 20:50:00,48.0,28.7,30.57,ENE,66,1.0,1.0,47,0.00,,,0.00,Wunderground v.1.15,2013-04-22 00:50:00,
2013-04-21 20:55:00,47.9,28.6,30.57,ENE,72,2.0,3.0,47,0.00,,,0.00,Wunderground v.1.15,2013-04-22 00:55:00,
2013-04-21 21:00:00,47.6,28.9,30.57,ENE,72,0.0,1.0,48,0.00,,,0.00,Wunderground v.1.15,2013-04-22 01:00:00,
2013-04-21 21:05:00,47.6,28.9,30.57,ENE,72,0.0,2.0,48,0.00,,,0.00,Wunderground v.1.15,2013-04-22 01:05:00,
2013-04-21 21:10:00,47.2,29.0,30.57,ENE,72,1.0,1.0,49,0.00,,,0.00,Wunderground v.1.15,2013-04-22 01:10:00,
2013-04-21 21:15:00,47.2,29.0,30.58,NE,56,1.0,5.0,49,0.00,,,0.00,Wunderground v.1.15,2013-04-22 01:15:00,
2013-04-21 21:20:00,47.1,28.9,30.58,NE,56,0.0,1.0,49,0.00,,,0.00,Wunderground v.1.15,2013-04-22 01:20:00,
2013-04-21 21:25:00,46.9,29.2,30.58,NE,56,1.0,2.0,50,0.00,,,0.00,Wunderground v.1.15,2013-04-22 01:25:00,
2013-04-21 21:30:00,46.9,28.7,30.58,NE,56,1.0,2.0,49,0.00,,,0.00,Wunderground v.1.15,2013-04-22 01:30:00,
2013-04-21 21:35:00,46.7,28.5,30.58,NE,56,1.0,2.0,49,0.00,,,0.00,Wunderground v.1.15,2013-04-22 01:35:00,
2013-04-21 21:40:00,46.8,28.6,30.58,ENE,65,1.0,1.0,49,0.00,,,0.00,Wunderground v.1.15,2013-04-22 01:40:00,
2013-04-21 21:46:00,46.5,28.8,30.58,ENE,65,0.0,2.0,50,0.00,,,0.00,Wunderground v.1.15,2013-04-22 01:46:00,
2013-04-21 21:51:00,46.2,28.6,30.58,ENE,61,1.0,3.0,50,0.00,,,0.00,Wunderground v.1.15,2013-04-22 01:51:00,
2013-04-21 21:56:00,46.0,29.3,30.58,ENE,61,0.0,3.0,52,0.00,,,0.00,Wunderground v.1.15,2013-04-22 01:56:00,
2013-04-21 22:01:00,45.8,29.2,30.59,NE,51,1.0,3.0,52,0.00,,,0.00,Wunderground v.1.15,2013-04-22 02:01:00,
2013-04-21 22:06:00,45.7,29.5,30.58,NE,51,1.0,3.0,53,0.00,,,0.00,Wunderground v.1.15,2013-04-22 02:06:00,
2013-04-21 22:11:00,45.9,28.8,30.59,ENE,58,1.0,3.0,51,0.00,,,0.00,Wunderground v.1.15,2013-04-22 02:11:00,
2013-04-21 22:16:00,46.1,29.0,30.59,ENE,59,0.0,3.0,51,0.00,,,0.00,Wunderground v.1.15,2013-04-22 02:16:00,
2013-04-21 22:21:00,46.0,28.9,30.59,ENE,62,1.0,2.0,51,0.00,,,0.00,Wunderground v.1.15,2013-04-22 02:21:00,
2013-04-21 22:26:00,45.5,29.3,30.59,ENE,62,0.0,2.0,53,0.00,,,0.00,Wunderground v.1.15,2013-04-22 02:26:00,
2013-04-21 22:31:00,45.0,29.3,30.59,ENE,62,0.0,1.0,54,0.00,,,0.00,Wunderground v.1.15,2013-04-22 02:31:00,
2013-04-21 22:36:00,44.7,29.5,30.59,ENE,62,0.0,2.0,55,0.00,,,0.00,Wunderground v.1.15,2013-04-22 02:36:00,
2013-04-21 22:41:00,44.7,29.5,30.59,ENE,62,0.0,0.0,55,0.00,,,0.00,Wunderground v.1.15,2013-04-22 02:41:00,
2013-04-21 22:46:00,44.5,29.8,30.59,ENE,62,0.0,1.0,56,0.00,,,0.00,Wunderground v.1.15,2013-04-22 02:46:00,
2013-04-21 22:51:00,44.3,29.1,30.59,ENE,62,0.0,0.0,55,0.00,,,0.00,Wunderground v.1.15,2013-04-22 02:51:00,
2013-04-21 22:56:00,44.2,29.5,30.59,ENE,62,0.0,0.0,56,0.00,,,0.00,Wunderground v.1.15,2013-04-22 02:56:00,
2013-04-21 23:01:00,44.1,29.8,30.59,ENE,62,0.0,2.0,57,0.00,,,0.00,Wunderground v.1.15,2013-04-22 03:01:00,
2013-04-21 23:06:00,44.2,29.9,30.59,ENE,62,0.0,2.0,57,0.00,,,0.00,Wunderground v.1.15,2013-04-22 03:06:00,
2013-04-21 23:11:00,44.2,29.9,30.59,ENE,62,0.0,0.0,57,0.00,,,0.00,Wunderground v.1.15,2013-04-22 03:11:00,
2013-04-21 23:16:00,44.0,30.6,30.59,ENE,62,2.0,2.0,59,0.00,,,0.00,Wunderground v.1.15,2013-04-22 03:16:00,
2013-04-21 23:21:00,43.9,30.1,30.59,ENE,62,2.0,2.0,58,0.00,,,0.00,Wunderground v.1.15,2013-04-22 03:21:00,
2013-04-21 23:26:00,44.0,30.6,30.59,ENE,62,1.0,2.0,59,0.00,,,0.00,Wunderground v.1.15,2013-04-22 03:26:00,
2013-04-21 23:31:00,44.3,30.4,30.59,ENE,67,3.0,3.0,58,0.00,,,0.00,Wunderground v.1.15,2013-04-22 03:31:00,
2013-04-21 23:36:00,44.7,30.4,30.59,ENE,64,3.0,5.0,57,0.00,,,0.00,Wunderground v.1.15,2013-04-22 03:36:00,
2013-04-21 23:41:00,44.9,31.0,30.59,ENE,67,2.0,5.0,58,0.00,,,0.00,Wunderground v.1.15,2013-04-22 03:41:00,
2013-04-21 23:46:00,45.0,31.9,30.59,ENE,61,2.0,7.0,60,0.00,,,0.00,Wunderground v.1.15,2013-04-22 03:46:00,
2013-04-21 23:51:00,45.1,32.0,30.59,NE,53,1.0,4.0,60,0.00,,,0.00,Wunderground v.1.15,2013-04-22 03:51:00,
2013-04-21 23:56:00,44.9,32.7,30.60,NE,44,1.0,5.0,62,0.00,,,0.00,Wunderground v.1.15,2013-04-22 03:56:00,